This is the latest recevied weather packets stored in our database for station/object KLEMETTI. If no packets are shown the sender has not sent any weather packets the latest 10 day(s).
| Time | Temp. | Humidity | Pressure | Rain* | Wind** | Luminosity | Snow |
|---|---|---|---|---|---|---|---|
| 1777571220 | 11.11° C | 62% | 1020.4 hPa | 0 mm | - | - | - |
| 1777570020 | 11.67° C | 61% | 1020.4 hPa | 0 mm | - | - | - |
| 1777568819 | 11.67° C | 62% | 1020.4 hPa | 0 mm | - | - | - |
| 1777567619 | 12.22° C | 60% | 1020.5 hPa | 0 mm | - | - | - |
| 1777566420 | 12.78° C | 59% | 1020.5 hPa | 0 mm | - | - | - |
| 1777565220 | 13.33° C | 57% | 1020.4 hPa | 0 mm | - | - | - |
| 1777564019 | 12.78° C | 57% | 1020.6 hPa | 0 mm | - | - | - |
| 1777562819 | 12.78° C | 57% | 1020.6 hPa | 0 mm | - | - | - |
| 1777561619 | 13.89° C | 53% | 1020.7 hPa | 0 mm | - | - | - |
| 1777560419 | 12.78° C | 58% | 1020.8 hPa | 0 mm | - | - | - |
| 1777559219 | 12.78° C | 57% | 1020.8 hPa | 0 mm | - | - | - |
| 1777558018 | 12.22° C | 58% | 1020.8 hPa | 0 mm | - | - | - |
| 1777556819 | 12.22° C | 58% | 1021 hPa | 0 mm | - | - | - |
| 1777555618 | 13.33° C | 56% | 1021 hPa | 0 mm | - | - | - |
| 1777554418 | 13.33° C | 56% | 1021 hPa | 0 mm | - | - | - |
| 1777553218 | 12.78° C | 56% | 1021 hPa | 0 mm | - | - | - |
| 1777552019 | 12.78° C | 57% | 1021.1 hPa | 0 mm | - | - | - |
| 1777550818 | 12.22° C | 58% | 1021 hPa | 0 mm | - | - | - |
| 1777549619 | 12.78° C | 59% | 1021 hPa | 0 mm | - | - | - |
| 1777548418 | 12.22° C | 59% | 1021 hPa | 0 mm | - | - | - |
| 1777547218 | 13.33° C | 56% | 1020.9 hPa | 0 mm | - | - | - |
| 1777546018 | 14.44° C | 52% | 1020.8 hPa | 0 mm | - | - | - |
| 1777544819 | 13.89° C | 52% | 1020.9 hPa | 0 mm | - | - | - |
| 1777543618 | 13.33° C | 54% | 1020.9 hPa | 0 mm | - | - | - |
| 1777542418 | 13.33° C | 55% | 1020.9 hPa | 0 mm | - | - | - |
* Rain latest hour (hover to see other rain measurements)
** Current wind speed in m/s (hover to see current wind gust speed)